Latest Weather Observations for Mandora

IDW60801

Issued at 2:05 pm WST Saturday 20 September 2014 (issued every 30 minutes, with the page automatically refreshed every 10 minutes)

About weather observations | Map of weather stations | Latest weather observations for WA | Other Formats
Station Details ID: 004019 Name: MANDORA Lat: -19.74 Lon: 120.84 Height: 7.5 m
Data from the previous 72 hours. | See also: Recent months at Mandora
Date/Time
WST
Temp
°C
App
Temp
°C
Dew
Point
Rel
Hum
%
Delta-T
°C
Wind Press
QNH
hPa
Press
MSL
hPa
Rain
since 9 am
mm
Dir
 
Spd
km/h
Gust
km/h
Spd
kts
Gust
kts
20/02:00pm 38.1 - - - - WNW 19 30 10 16 1010.7 - 0.0
20/01:30pm 38.9 - - - - NW 17 24 9 13 1010.9 - 0.0
20/01:00pm 38.9 - - - - N 19 33 10 18 1011.1 - 0.0
20/12:30pm 39.9 - - - - E 9 20 5 11 1011.6 - 0.0
20/12:00pm 38.7 - - - - SW 9 20 5 11 1012.2 1012.2 0.0
20/11:30am 38.4 - - - - NNW 15 24 8 13 1012.9 - 0.0
20/11:00am 37.9 - - - - NNW 7 11 4 6 1013.4 - 0.0
20/10:30am 37.5 - - - - S 15 24 8 13 1013.8 - 0.0
20/10:00am 36.8 - - - - SSE 13 19 7 10 1014.2 - 0.0
20/09:30am 36.2 - - - - SW 15 22 8 12 1014.5 - 0.0
20/09:00am 35.1 - - - - SW 13 19 7 10 1014.7 1014.7 0.0
20/08:30am 31.3 - - - - NW 9 13 5 7 1014.7 - 0.0
20/08:00am 27.6 - - - - NW 7 9 4 5 1014.7 - 0.0
20/07:30am 25.7 - - - - WSW 9 13 5 7 1014.4 - 0.0
20/07:00am 21.2 - - - - WSW 7 9 4 5 1014.2 - 0.0
20/06:30am 18.2 - - - - WSW 11 11 6 6 1013.9 - 0.0
20/06:00am 16.6 - - - - WNW 11 15 6 8 1013.6 1013.6 0.0
20/05:30am 17.0 - - - - W 13 15 7 8 1013.3 - 0.0
20/05:00am 16.8 - - - - W 11 13 6 7 1013.1 - 0.0
20/04:30am 16.8 - - - - W 9 13 5 7 1013.1 - 0.0
20/04:00am 17.2 - - - - SW 7 9 4 5 1012.9 - 0.0
20/03:30am 18.1 - - - - WSW 9 13 5 7 1012.7 - 0.0
20/03:00am 19.2 - - - - SW 11 13 6 7 1012.7 1012.7 0.0
20/02:30am 19.7 - - - - SW 11 15 6 8 1012.8 - 0.0
20/02:00am 19.9 - - - - WSW 11 13 6 7 1012.9 - 0.0
20/01:30am 20.6 - - - - WSW 7 11 4 6 1013.1 - 0.0
20/01:00am 21.8 - - - - WSW 11 15 6 8 1013.2 - 0.0
20/12:30am 21.7 - - - - W 11 13 6 7 1013.4 - 0.0
20/12:00am 22.8 - - - - NNE 7 19 4 10 1013.7 1013.7 0.0
 
Date/Time
WST
Temp
°C
App
Temp
°C
Dew
Point
Rel
Hum
%
Delta-T
°C
Wind Press
QNH
hPa
Press
MSL
hPa
Rain
since 9 am
mm
Dir
 
Spd
km/h
Gust
km/h
Spd
kts
Gust
kts
19/11:30pm 22.4 - - - - W 13 17 7 9 1014.1 - 0.0
19/11:00pm 21.5 - - - - WNW 13 24 7 13 1014.4 - 0.0
19/10:30pm 22.0 - - - - WSW 11 13 6 7 1014.4 - 0.0
19/10:00pm 21.5 - - - - W 11 11 6 6 1014.6 - 0.0
19/09:30pm 22.3 - - - - WSW 7 9 4 5 1014.6 - 0.0
19/09:00pm 23.3 - - - - W 9 11 5 6 1014.6 1014.6 0.0
19/08:30pm 24.6 - - - - W 11 17 6 9 1014.3 - 0.0
19/08:00pm 25.4 - - - - W 13 17 7 9 1014.1 - 0.0
19/07:30pm 25.1 - - - - W 11 13 6 7 1013.9 - 0.0
19/07:00pm 25.9 - - - - W 11 13 6 7 1013.5 - 0.0
19/06:30pm 27.0 - - - - W 9 13 5 7 1013.2 - 0.0
19/06:00pm 28.7 - - - - WNW 11 15 6 8 1012.7 1012.7 0.0
19/05:30pm 31.6 - - - - WNW 13 17 7 9 1012.4 - 0.0
19/05:00pm 33.5 - - - - WNW 17 22 9 12 1012.1 - 0.0
19/04:30pm 34.2 - - - - WNW 19 26 10 14 1012.0 - 0.0
19/04:00pm 35.1 - - - - WNW 20 26 11 14 1011.8 - 0.0
19/03:30pm 35.8 - - - - WNW 22 32 12 17 1011.6 - 0.0
19/03:00pm 36.3 - - - - WNW 22 32 12 17 1011.7 1011.7 0.0
19/02:30pm 36.8 - - - - W 24 35 13 19 1012.0 - 0.0
19/02:00pm 36.5 - - - - WNW 22 33 12 18 1012.3 - 0.0
19/01:30pm 36.7 - - - - WNW 22 32 12 17 1012.6 - 0.0
19/01:00pm 37.1 - - - - W 22 32 12 17 1012.7 - 0.0
19/12:30pm 37.5 - - - - NW 24 39 13 21 1013.1 - 0.0
19/12:00pm 36.8 - - - - NW 20 32 11 17 1013.4 1013.4 0.0
19/11:30am 37.1 - - - - W 19 28 10 15 1013.8 - 0.0
19/11:00am 36.8 - - - - W 17 26 9 14 1014.4 - 0.0
19/10:30am 36.3 - - - - SW 13 24 7 13 1014.9 - 0.0
19/10:00am 35.2 - - - - WSW 15 24 8 13 1015.2 - 0.0
19/09:30am 33.0 - - - - SW 7 17 4 9 1015.5 - 0.0
19/09:00am 29.9 - - - - WNW 7 11 4 6 1015.7 1015.7 0.0
19/08:30am 27.1 - - - - NNW 7 11 4 6 1015.9 - 0.0
19/08:00am 24.1 - - - - N 9 13 5 7 1015.8 - 0.0
19/07:30am 21.3 - - - - WSW 6 11 3 6 1015.2 - 0.0
19/07:00am 18.6 - - - - CALM 0 6 0 3 1014.9 - 0.0
19/06:30am 16.3 - - - - SW 2 9 1 5 1014.5 - 0.0
19/06:00am 16.5 - - - - SW 11 15 6 8 1014.0 1014.0 0.0
19/05:30am 15.7 - - - - WSW 4 9 2 5 1013.9 - 0.0
19/05:00am 16.9 - - - - SW 11 13 6 7 1013.6 - 0.0
19/04:30am 16.2 - - - - S 9 13 5 7 1013.5 - 0.0
19/04:00am 17.0 - - - - SW 4 7 2 4 1013.5 - 0.0
19/03:30am 18.3 - - - - SSW 9 13 5 7 1013.3 - 0.0
19/03:00am 19.0 - - - - SW 7 9 4 5 1013.4 1013.4 0.0
19/02:30am 19.6 - - - - SW 11 15 6 8 1013.6 - 0.0
19/01:00am 17.9 - - - - WSW 6 9 3 5 1014.1 - 0.0
19/12:30am 18.4 - - - - WSW 6 7 3 4 1014.3 - 0.0
19/12:00am 20.1 - - - - WNW 7 9 4 5 1014.6 1014.6 0.0
 
Date/Time
WST
Temp
°C
App
Temp
°C
Dew
Point
Rel
Hum
%
Delta-T
°C
Wind Press
QNH
hPa
Press
MSL
hPa
Rain
since 9 am
mm
Dir
 
Spd
km/h
Gust
km/h
Spd
kts
Gust
kts
18/11:30pm 20.4 - - - - W 6 9 3 5 1014.8 - 0.0
18/11:00pm 21.2 - - - - W 13 15 7 8 1015.0 - 0.0
18/10:30pm 20.7 - - - - W 11 13 6 7 1015.2 - 0.0
18/10:00pm 20.1 - - - - W 9 13 5 7 1015.4 - 0.0
18/09:30pm 20.7 - - - - W 9 11 5 6 1015.4 - 0.0
18/09:00pm 20.7 - - - - WSW 9 11 5 6 1015.3 1015.3 0.0
18/08:30pm 21.0 - - - - WSW 9 11 5 6 1015.2 - 0.0
18/08:00pm 21.4 - - - - W 7 9 4 5 1015.0 - 0.0
18/07:30pm 22.2 - - - - WNW 7 9 4 5 1014.6 - 0.0
18/07:00pm 22.6 - - - - NW 9 11 5 6 1014.3 - 0.0
18/06:30pm 23.5 - - - - WNW 9 13 5 7 1014.0 - 0.0
18/06:00pm 24.5 - - - - WNW 13 19 7 10 1013.7 1013.7 0.0
18/05:30pm 26.0 - - - - WNW 13 20 7 11 1013.2 - 0.0
18/05:00pm 27.4 - - - - WNW 17 20 9 11 1012.7 - 0.0
18/04:30pm 28.2 - - - - NW 17 24 9 13 1012.6 - 0.0
18/04:00pm 28.8 - - - - NW 20 28 11 15 1012.5 - 0.0
18/03:30pm 29.0 - - - - NW 19 28 10 15 1012.5 - 0.0
18/03:00pm 28.8 - - - - NW 22 32 12 17 1012.6 1012.6 0.0
18/02:30pm 29.5 - - - - NW 19 26 10 14 1012.6 - 0.0
18/02:00pm 30.3 - - - - NW 19 26 10 14 1012.8 - 0.0
18/01:30pm 30.3 - - - - WNW 17 24 9 13 1013.1 - 0.0
18/01:00pm 29.5 - - - - NW 19 26 10 14 1013.6 - 0.0
18/12:30pm 29.5 - - - - NNW 19 24 10 13 1014.0 - 0.0
18/12:00pm 28.8 - - - - NNW 20 30 11 16 1014.5 1014.5 0.0
18/11:43am 27.9 - - - - N 28 46 15 25 1014.7 - 0.0
18/11:30am 31.6 - - - - W 15 20 8 11 1014.3 - 0.0
18/11:00am 30.5 - - - - NW 11 17 6 9 1014.7 - 0.0
18/10:30am 29.4 - - - - NNW 13 20 7 11 1015.3 - 0.0
18/10:00am 29.3 - - - - NW 11 15 6 8 1015.5 - 0.0
18/09:30am 29.5 - - - - W 11 17 6 9 1015.7 - 0.0
18/09:00am 27.7 - - - - W 13 19 7 10 1016.0 1016.0 0.0
18/08:30am 25.3 - - - - W 9 15 5 8 1016.0 - 0.0
18/08:00am 23.5 - - - - WSW 6 9 3 5 1016.0 - 0.0
18/07:30am 21.7 - - - - S 6 11 3 6 1016.0 - 0.0
18/07:00am 20.0 - - - - ENE 7 13 4 7 1015.5 - 0.0
18/06:30am 18.8 - - - - NNE 9 17 5 9 1015.3 - 0.0
18/06:00am 18.3 - - - - WNW 9 13 5 7 1014.8 1014.8 0.0
18/05:30am 18.9 - - - - SW 11 15 6 8 1014.3 - 0.0
18/05:00am 19.4 - - - - SW 11 15 6 8 1013.9 - 0.0
18/04:30am 20.3 - - - - W 7 13 4 7 1013.8 - 0.0
18/04:00am 20.6 - - - - SW 13 19 7 10 1013.4 - 0.0
18/03:30am 20.9 - - - - SW 15 19 8 10 1013.4 - 0.0
18/03:00am 21.5 - - - - WSW 11 19 6 10 1013.5 1013.5 0.0
18/02:30am 21.2 - - - - SW 9 13 5 7 1013.7 - 0.0
18/02:00am 21.5 - - - - WSW 7 13 4 7 1013.6 - 0.0
18/01:30am 21.8 - - - - WSW 15 20 8 11 1013.5 - 0.0
18/01:00am 22.3 - - - - WSW 20 26 11 14 1013.5 - 0.0
18/12:30am 22.3 - - - - WSW 11 15 6 8 1014.4 - 0.0
18/12:00am 22.5 - - - - WSW 13 19 7 10 1014.5 1014.5 0.0
 
Date/Time
WST
Temp
°C
App
Temp
°C
Dew
Point
Rel
Hum
%
Delta-T
°C
Wind Press
QNH
hPa
Press
MSL
hPa
Rain
since 9 am
mm
Dir
 
Spd
km/h
Gust
km/h
Spd
kts
Gust
kts
17/11:30pm 22.1 - - - - SW 9 13 5 7 1014.6 - 0.0
17/11:00pm 22.1 - - - - WNW 9 15 5 8 1014.6 - 0.0
17/10:30pm 22.1 - - - - WNW 11 17 6 9 1014.7 - 0.0
17/10:00pm 22.1 - - - - WNW 13 17 7 9 1014.8 - 0.0
17/09:30pm 21.9 - - - - W 11 13 6 7 1014.9 - 0.0
17/09:00pm 21.9 - - - - WNW 9 13 5 7 1014.8 1014.8 0.0
17/08:30pm 22.2 - - - - W 11 15 6 8 1014.6 - 0.0
17/08:00pm 22.2 - - - - WNW 11 15 6 8 1014.3 - 0.0
17/07:30pm 22.3 - - - - WNW 9 11 5 6 1014.1 - 0.0
17/07:00pm 22.6 - - - - WNW 11 13 6 7 1013.6 - 0.0
17/06:30pm 23.4 - - - - WNW 11 15 6 8 1013.4 - 0.0
17/06:00pm 24.0 - - - - WNW 13 19 7 10 1012.9 1012.9 0.0
17/05:30pm 25.1 - - - - NW 15 22 8 12 1012.7 - 0.0
17/05:00pm 26.0 - - - - NW 20 26 11 14 1012.4 - 0.0
17/04:30pm 26.9 - - - - NW 19 24 10 13 1012.0 - 0.0
17/04:00pm 27.7 - - - - NW 20 30 11 16 1011.8 - 0.0
17/03:30pm 28.3 - - - - NW 20 37 11 20 1011.6 - 0.0
17/03:00pm 32.1 - - - - WNW 15 20 8 11 1011.4 1011.4 0.0
17/02:30pm 30.2 - - - - NW 17 26 9 14 1011.5 - 0.0

Other Formats:

Comma delimited format used in spreadsheet applications
http://www.bom.gov.au/fwo/IDW60801/IDW60801.94200.axf

JavaScript Object Notation format (JSON) in row-major order
http://www.bom.gov.au/fwo/IDW60801/IDW60801.94200.json